sensor_id;sensor_type;location;lat;lon;timestamp;P1;durP1;ratioP1;P2;durP2;ratioP2
14732;SDS011;7457;50.960;6.830;2023-12-29T00:00:34;6.45;;;1.50;;
14732;SDS011;7457;50.960;6.830;2023-12-29T00:02:59;10.07;;;1.60;;
14732;SDS011;7457;50.960;6.830;2023-12-29T00:05:25;3.80;;;1.55;;
14732;SDS011;7457;50.960;6.830;2023-12-29T00:07:52;2.25;;;1.40;;
14732;SDS011;7457;50.960;6.830;2023-12-29T00:10:18;5.13;;;1.70;;
14732;SDS011;7457;50.960;6.830;2023-12-29T00:12:44;2.78;;;1.40;;
14732;SDS011;7457;50.960;6.830;2023-12-29T00:15:09;4.30;;;1.20;;
14732;SDS011;7457;50.960;6.830;2023-12-29T00:17:35;6.63;;;1.50;;
14732;SDS011;7457;50.960;6.830;2023-12-29T00:20:05;4.28;;;1.63;;
14732;SDS011;7457;50.960;6.830;2023-12-29T00:22:33;2.33;;;1.45;;
14732;SDS011;7457;50.960;6.830;2023-12-29T00:24:59;4.15;;;1.48;;
14732;SDS011;7457;50.960;6.830;2023-12-29T00:27:25;4.10;;;1.13;;
14732;SDS011;7457;50.960;6.830;2023-12-29T00:29:50;8.05;;;1.75;;
14732;SDS011;7457;50.960;6.830;2023-12-29T00:32:16;6.75;;;2.25;;
14732;SDS011;7457;50.960;6.830;2023-12-29T00:34:42;3.97;;;2.13;;
14732;SDS011;7457;50.960;6.830;2023-12-29T00:37:07;3.47;;;1.38;;
14732;SDS011;7457;50.960;6.830;2023-12-29T00:39:33;3.25;;;1.25;;
14732;SDS011;7457;50.960;6.830;2023-12-29T00:42:04;5.10;;;1.48;;
14732;SDS011;7457;50.960;6.830;2023-12-29T00:44:31;7.10;;;1.90;;
14732;SDS011;7457;50.960;6.830;2023-12-29T00:46:57;4.97;;;1.33;;
14732;SDS011;7457;50.960;6.830;2023-12-29T00:49:22;5.22;;;1.42;;
14732;SDS011;7457;50.960;6.830;2023-12-29T00:51:48;3.55;;;1.70;;
14732;SDS011;7457;50.960;6.830;2023-12-29T00:54:14;6.45;;;1.80;;
14732;SDS011;7457;50.960;6.830;2023-12-29T00:56:40;6.25;;;1.65;;
14732;SDS011;7457;50.960;6.830;2023-12-29T00:59:05;3.88;;;1.83;;
14732;SDS011;7457;50.960;6.830;2023-12-29T01:01:34;7.55;;;1.50;;
14732;SDS011;7457;50.960;6.830;2023-12-29T01:04:00;3.70;;;1.48;;
14732;SDS011;7457;50.960;6.830;2023-12-29T01:06:27;5.75;;;1.75;;
14732;SDS011;7457;50.960;6.830;2023-12-29T01:08:52;9.68;;;2.33;;
14732;SDS011;7457;50.960;6.830;2023-12-29T01:11:18;10.18;;;2.17;;
14732;SDS011;7457;50.960;6.830;2023-12-29T01:13:43;7.95;;;1.77;;
14732;SDS011;7457;50.960;6.830;2023-12-29T01:16:09;8.25;;;2.00;;
14732;SDS011;7457;50.960;6.830;2023-12-29T01:18:34;6.85;;;2.22;;
14732;SDS011;7457;50.960;6.830;2023-12-29T01:21:00;5.65;;;1.73;;
14732;SDS011;7457;50.960;6.830;2023-12-29T01:23:26;5.70;;;1.33;;
14732;SDS011;7457;50.960;6.830;2023-12-29T01:25:51;8.60;;;2.50;;
14732;SDS011;7457;50.960;6.830;2023-12-29T01:28:17;6.97;;;1.80;;
14732;SDS011;7457;50.960;6.830;2023-12-29T01:30:42;5.75;;;2.13;;
14732;SDS011;7457;50.960;6.830;2023-12-29T01:33:08;5.30;;;1.50;;
14732;SDS011;7457;50.960;6.830;2023-12-29T01:35:34;8.93;;;1.60;;
14732;SDS011;7457;50.960;6.830;2023-12-29T01:37:59;8.25;;;1.75;;
14732;SDS011;7457;50.960;6.830;2023-12-29T01:40:27;9.18;;;2.20;;
14732;SDS011;7457;50.960;6.830;2023-12-29T01:42:52;7.28;;;2.17;;
14732;SDS011;7457;50.960;6.830;2023-12-29T01:45:21;4.10;;;1.95;;
14732;SDS011;7457;50.960;6.830;2023-12-29T01:47:51;4.85;;;1.38;;
14732;SDS011;7457;50.960;6.830;2023-12-29T01:50:18;5.97;;;1.88;;
14732;SDS011;7457;50.960;6.830;2023-12-29T01:52:45;3.67;;;1.63;;
14732;SDS011;7457;50.960;6.830;2023-12-29T01:55:14;4.25;;;1.63;;
14732;SDS011;7457;50.960;6.830;2023-12-29T01:57:42;8.43;;;1.95;;
14732;SDS011;7457;50.960;6.830;2023-12-29T02:00:08;3.08;;;1.50;;
14732;SDS011;7457;50.960;6.830;2023-12-29T02:02:36;9.82;;;1.83;;
14732;SDS011;7457;50.960;6.830;2023-12-29T02:05:01;9.10;;;2.17;;
14732;SDS011;7457;50.960;6.830;2023-12-29T02:07:27;4.32;;;1.42;;
14732;SDS011;7457;50.960;6.830;2023-12-29T02:09:56;5.78;;;1.85;;
14732;SDS011;7457;50.960;6.830;2023-12-29T02:12:25;10.15;;;2.00;;
14732;SDS011;7457;50.960;6.830;2023-12-29T02:14:51;5.22;;;1.80;;
14732;SDS011;7457;50.960;6.830;2023-12-29T02:17:26;4.40;;;1.48;;
14732;SDS011;7457;50.960;6.830;2023-12-29T02:19:54;10.98;;;2.25;;
14732;SDS011;7457;50.960;6.830;2023-12-29T02:22:20;4.20;;;1.65;;
14732;SDS011;7457;50.960;6.830;2023-12-29T02:24:48;4.22;;;1.88;;
14732;SDS011;7457;50.960;6.830;2023-12-29T02:32:43;2.42;;;1.40;;
14732;SDS011;7457;50.960;6.830;2023-12-29T02:35:16;8.82;;;1.90;;
14732;SDS011;7457;50.960;6.830;2023-12-29T02:37:45;8.98;;;1.85;;
14732;SDS011;7457;50.960;6.830;2023-12-29T02:40:12;3.67;;;1.83;;
14732;SDS011;7457;50.960;6.830;2023-12-29T02:42:44;5.53;;;1.83;;
14732;SDS011;7457;50.960;6.830;2023-12-29T02:45:11;5.35;;;1.67;;
14732;SDS011;7457;50.960;6.830;2023-12-29T02:47:36;6.97;;;1.95;;
14732;SDS011;7457;50.960;6.830;2023-12-29T02:50:02;6.18;;;2.35;;
14732;SDS011;7457;50.960;6.830;2023-12-29T02:52:28;4.13;;;1.90;;
14732;SDS011;7457;50.960;6.830;2023-12-29T02:54:54;3.45;;;1.50;;
14732;SDS011;7457;50.960;6.830;2023-12-29T02:57:19;9.48;;;2.00;;
14732;SDS011;7457;50.960;6.830;2023-12-29T02:59:45;6.57;;;1.88;;
14732;SDS011;7457;50.960;6.830;2023-12-29T03:02:10;3.90;;;1.70;;
14732;SDS011;7457;50.960;6.830;2023-12-29T03:04:36;5.57;;;1.73;;
14732;SDS011;7457;50.960;6.830;2023-12-29T03:07:02;5.78;;;1.73;;
14732;SDS011;7457;50.960;6.830;2023-12-29T03:09:27;3.45;;;1.35;;
14732;SDS011;7457;50.960;6.830;2023-12-29T03:11:53;5.28;;;2.30;;
14732;SDS011;7457;50.960;6.830;2023-12-29T03:14:19;3.15;;;1.88;;
14732;SDS011;7457;50.960;6.830;2023-12-29T03:16:44;3.13;;;1.65;;
14732;SDS011;7457;50.960;6.830;2023-12-29T03:19:10;5.18;;;2.10;;
14732;SDS011;7457;50.960;6.830;2023-12-29T03:21:35;4.53;;;1.85;;
14732;SDS011;7457;50.960;6.830;2023-12-29T03:24:01;4.30;;;2.17;;
14732;SDS011;7457;50.960;6.830;2023-12-29T03:26:27;5.25;;;1.80;;
14732;SDS011;7457;50.960;6.830;2023-12-29T03:28:53;4.40;;;1.60;;
14732;SDS011;7457;50.960;6.830;2023-12-29T03:31:20;5.40;;;2.17;;
14732;SDS011;7457;50.960;6.830;2023-12-29T03:33:46;3.75;;;1.77;;
14732;SDS011;7457;50.960;6.830;2023-12-29T03:36:12;4.57;;;1.70;;
14732;SDS011;7457;50.960;6.830;2023-12-29T03:38:37;5.43;;;1.80;;
14732;SDS011;7457;50.960;6.830;2023-12-29T03:41:03;6.15;;;2.05;;
14732;SDS011;7457;50.960;6.830;2023-12-29T03:43:29;5.60;;;1.95;;
14732;SDS011;7457;50.960;6.830;2023-12-29T03:45:55;4.35;;;1.80;;
14732;SDS011;7457;50.960;6.830;2023-12-29T03:48:20;4.53;;;1.58;;
14732;SDS011;7457;50.960;6.830;2023-12-29T03:50:46;4.65;;;1.65;;
14732;SDS011;7457;50.960;6.830;2023-12-29T03:53:12;4.70;;;1.48;;
14732;SDS011;7457;50.960;6.830;2023-12-29T03:55:39;5.43;;;1.50;;
14732;SDS011;7457;50.960;6.830;2023-12-29T03:58:06;6.47;;;1.73;;
14732;SDS011;7457;50.960;6.830;2023-12-29T04:00:31;2.33;;;1.30;;
14732;SDS011;7457;50.960;6.830;2023-12-29T04:02:57;5.32;;;1.65;;
14732;SDS011;7457;50.960;6.830;2023-12-29T04:05:23;4.75;;;1.70;;
14732;SDS011;7457;50.960;6.830;2023-12-29T04:07:48;6.03;;;1.67;;
14732;SDS011;7457;50.960;6.830;2023-12-29T04:10:14;1.83;;;1.52;;
14732;SDS011;7457;50.960;6.830;2023-12-29T04:12:40;3.22;;;1.33;;
14732;SDS011;7457;50.960;6.830;2023-12-29T04:15:05;5.88;;;1.90;;
14732;SDS011;7457;50.960;6.830;2023-12-29T04:17:31;4.72;;;2.00;;
14732;SDS011;7457;50.960;6.830;2023-12-29T04:19:57;5.85;;;1.80;;
14732;SDS011;7457;50.960;6.830;2023-12-29T04:22:22;6.13;;;1.77;;
14732;SDS011;7457;50.960;6.830;2023-12-29T04:24:48;8.15;;;1.92;;
14732;SDS011;7457;50.960;6.830;2023-12-29T04:27:14;7.22;;;1.90;;
14732;SDS011;7457;50.960;6.830;2023-12-29T04:29:40;3.50;;;1.52;;
14732;SDS011;7457;50.960;6.830;2023-12-29T04:32:05;4.85;;;1.90;;
14732;SDS011;7457;50.960;6.830;2023-12-29T04:34:31;2.72;;;2.13;;
14732;SDS011;7457;50.960;6.830;2023-12-29T04:36:57;5.47;;;1.70;;
14732;SDS011;7457;50.960;6.830;2023-12-29T04:39:22;5.88;;;1.23;;
14732;SDS011;7457;50.960;6.830;2023-12-29T04:41:49;3.80;;;1.30;;
14732;SDS011;7457;50.960;6.830;2023-12-29T04:44:15;4.85;;;1.33;;
14732;SDS011;7457;50.960;6.830;2023-12-29T04:46:41;6.00;;;1.60;;
14732;SDS011;7457;50.960;6.830;2023-12-29T04:49:07;4.00;;;1.42;;
14732;SDS011;7457;50.960;6.830;2023-12-29T04:51:33;8.93;;;1.88;;
14732;SDS011;7457;50.960;6.830;2023-12-29T04:53:59;5.05;;;1.63;;
14732;SDS011;7457;50.960;6.830;2023-12-29T04:56:25;4.68;;;1.80;;
14732;SDS011;7457;50.960;6.830;2023-12-29T04:58:51;7.18;;;1.67;;
14732;SDS011;7457;50.960;6.830;2023-12-29T05:01:17;4.90;;;1.60;;
14732;SDS011;7457;50.960;6.830;2023-12-29T05:03:42;4.07;;;1.90;;
14732;SDS011;7457;50.960;6.830;2023-12-29T05:06:08;3.42;;;1.63;;
14732;SDS011;7457;50.960;6.830;2023-12-29T05:08:34;3.75;;;1.77;;
14732;SDS011;7457;50.960;6.830;2023-12-29T05:11:00;3.25;;;1.48;;
14732;SDS011;7457;50.960;6.830;2023-12-29T05:13:25;6.00;;;1.98;;
14732;SDS011;7457;50.960;6.830;2023-12-29T05:15:51;3.20;;;1.50;;
14732;SDS011;7457;50.960;6.830;2023-12-29T05:18:17;9.63;;;1.98;;
14732;SDS011;7457;50.960;6.830;2023-12-29T05:20:42;4.38;;;1.80;;
14732;SDS011;7457;50.960;6.830;2023-12-29T05:23:08;4.22;;;1.40;;
14732;SDS011;7457;50.960;6.830;2023-12-29T05:25:34;2.83;;;1.25;;
14732;SDS011;7457;50.960;6.830;2023-12-29T05:27:59;9.32;;;2.35;;
14732;SDS011;7457;50.960;6.830;2023-12-29T05:30:25;5.22;;;1.70;;
14732;SDS011;7457;50.960;6.830;2023-12-29T05:32:52;5.10;;;1.58;;
14732;SDS011;7457;50.960;6.830;2023-12-29T05:35:18;5.38;;;1.75;;
14732;SDS011;7457;50.960;6.830;2023-12-29T05:37:44;6.57;;;1.70;;
14732;SDS011;7457;50.960;6.830;2023-12-29T05:40:10;4.47;;;1.40;;
14732;SDS011;7457;50.960;6.830;2023-12-29T05:42:36;5.20;;;1.80;;
14732;SDS011;7457;50.960;6.830;2023-12-29T05:45:01;6.43;;;1.73;;
14732;SDS011;7457;50.960;6.830;2023-12-29T05:47:27;5.53;;;2.22;;
14732;SDS011;7457;50.960;6.830;2023-12-29T05:49:53;5.63;;;1.40;;
14732;SDS011;7457;50.960;6.830;2023-12-29T05:52:18;4.93;;;1.70;;
14732;SDS011;7457;50.960;6.830;2023-12-29T05:54:44;3.92;;;1.25;;
14732;SDS011;7457;50.960;6.830;2023-12-29T05:57:10;5.15;;;1.58;;
14732;SDS011;7457;50.960;6.830;2023-12-29T05:59:35;3.60;;;1.80;;
14732;SDS011;7457;50.960;6.830;2023-12-29T06:02:01;6.53;;;1.73;;
14732;SDS011;7457;50.960;6.830;2023-12-29T06:04:27;4.57;;;1.63;;
14732;SDS011;7457;50.960;6.830;2023-12-29T06:06:53;4.40;;;1.42;;
14732;SDS011;7457;50.960;6.830;2023-12-29T06:09:18;3.40;;;1.13;;
14732;SDS011;7457;50.960;6.830;2023-12-29T06:11:44;2.63;;;1.27;;
14732;SDS011;7457;50.960;6.830;2023-12-29T06:14:10;4.00;;;1.40;;
14732;SDS011;7457;50.960;6.830;2023-12-29T06:16:35;5.22;;;1.73;;
14732;SDS011;7457;50.960;6.830;2023-12-29T06:19:01;3.88;;;1.38;;
14732;SDS011;7457;50.960;6.830;2023-12-29T06:21:27;2.90;;;1.65;;
14732;SDS011;7457;50.960;6.830;2023-12-29T06:23:52;4.80;;;1.80;;
14732;SDS011;7457;50.960;6.830;2023-12-29T06:26:18;1.90;;;1.15;;
14732;SDS011;7457;50.960;6.830;2023-12-29T06:28:46;1.67;;;0.95;;
14732;SDS011;7457;50.960;6.830;2023-12-29T06:31:12;5.43;;;1.50;;
14732;SDS011;7457;50.960;6.830;2023-12-29T06:33:41;3.35;;;1.50;;
14732;SDS011;7457;50.960;6.830;2023-12-29T06:36:08;4.07;;;1.42;;
14732;SDS011;7457;50.960;6.830;2023-12-29T06:38:34;5.50;;;1.30;;
14732;SDS011;7457;50.960;6.830;2023-12-29T06:41:03;2.25;;;1.42;;
14732;SDS011;7457;50.960;6.830;2023-12-29T06:43:29;2.55;;;1.35;;
14732;SDS011;7457;50.960;6.830;2023-12-29T06:45:55;5.22;;;1.70;;
14732;SDS011;7457;50.960;6.830;2023-12-29T06:48:21;3.70;;;1.35;;
14732;SDS011;7457;50.960;6.830;2023-12-29T06:50:47;6.18;;;1.35;;
14732;SDS011;7457;50.960;6.830;2023-12-29T06:53:13;6.60;;;2.20;;
14732;SDS011;7457;50.960;6.830;2023-12-29T06:55:38;5.05;;;1.77;;
14732;SDS011;7457;50.960;6.830;2023-12-29T06:58:04;6.93;;;1.48;;
14732;SDS011;7457;50.960;6.830;2023-12-29T07:00:30;4.43;;;1.63;;
14732;SDS011;7457;50.960;6.830;2023-12-29T07:02:56;4.50;;;1.38;;
14732;SDS011;7457;50.960;6.830;2023-12-29T07:05:21;2.85;;;1.35;;
14732;SDS011;7457;50.960;6.830;2023-12-29T07:07:47;3.55;;;2.08;;
14732;SDS011;7457;50.960;6.830;2023-12-29T07:10:13;7.78;;;1.33;;
14732;SDS011;7457;50.960;6.830;2023-12-29T07:12:40;4.40;;;1.40;;
14732;SDS011;7457;50.960;6.830;2023-12-29T07:15:06;3.92;;;1.55;;
14732;SDS011;7457;50.960;6.830;2023-12-29T07:17:32;6.47;;;2.08;;
14732;SDS011;7457;50.960;6.830;2023-12-29T07:19:57;4.07;;;1.75;;
14732;SDS011;7457;50.960;6.830;2023-12-29T07:22:23;3.85;;;1.88;;
14732;SDS011;7457;50.960;6.830;2023-12-29T07:24:49;3.95;;;1.10;;
14732;SDS011;7457;50.960;6.830;2023-12-29T07:27:14;2.00;;;1.25;;
14732;SDS011;7457;50.960;6.830;2023-12-29T07:29:40;4.10;;;1.42;;
14732;SDS011;7457;50.960;6.830;2023-12-29T07:32:06;4.07;;;1.38;;
14732;SDS011;7457;50.960;6.830;2023-12-29T07:34:32;1.88;;;1.00;;
14732;SDS011;7457;50.960;6.830;2023-12-29T07:36:57;3.10;;;1.52;;
14732;SDS011;7457;50.960;6.830;2023-12-29T07:39:23;3.70;;;1.10;;
14732;SDS011;7457;50.960;6.830;2023-12-29T07:41:49;5.50;;;1.52;;
14732;SDS011;7457;50.960;6.830;2023-12-29T07:44:16;3.30;;;1.20;;
14732;SDS011;7457;50.960;6.830;2023-12-29T07:46:44;4.00;;;1.30;;
14732;SDS011;7457;50.960;6.830;2023-12-29T07:49:10;7.53;;;1.38;;
14732;SDS011;7457;50.960;6.830;2023-12-29T07:51:39;3.17;;;1.38;;
14732;SDS011;7457;50.960;6.830;2023-12-29T07:54:06;3.47;;;1.17;;
14732;SDS011;7457;50.960;6.830;2023-12-29T07:56:32;4.72;;;1.30;;
14732;SDS011;7457;50.960;6.830;2023-12-29T07:58:58;2.63;;;1.27;;
14732;SDS011;7457;50.960;6.830;2023-12-29T08:01:24;2.15;;;1.25;;
14732;SDS011;7457;50.960;6.830;2023-12-29T08:03:50;5.00;;;1.42;;
14732;SDS011;7457;50.960;6.830;2023-12-29T08:06:16;3.53;;;1.40;;
14732;SDS011;7457;50.960;6.830;2023-12-29T08:08:42;3.38;;;1.30;;
14732;SDS011;7457;50.960;6.830;2023-12-29T08:11:14;6.35;;;1.70;;
14732;SDS011;7457;50.960;6.830;2023-12-29T08:13:43;2.17;;;1.23;;
14732;SDS011;7457;50.960;6.830;2023-12-29T08:16:09;2.42;;;1.10;;
14732;SDS011;7457;50.960;6.830;2023-12-29T08:18:35;3.40;;;1.27;;
14732;SDS011;7457;50.960;6.830;2023-12-29T08:21:01;8.10;;;1.73;;
14732;SDS011;7457;50.960;6.830;2023-12-29T08:23:27;3.05;;;1.63;;
14732;SDS011;7457;50.960;6.830;2023-12-29T08:25:53;3.95;;;1.75;;
14732;SDS011;7457;50.960;6.830;2023-12-29T08:28:18;4.10;;;1.55;;
14732;SDS011;7457;50.960;6.830;2023-12-29T08:30:44;2.60;;;1.92;;
14732;SDS011;7457;50.960;6.830;2023-12-29T08:33:12;4.57;;;1.10;;
14732;SDS011;7457;50.960;6.830;2023-12-29T08:35:41;3.03;;;1.33;;
14732;SDS011;7457;50.960;6.830;2023-12-29T08:38:10;3.97;;;1.35;;
14732;SDS011;7457;50.960;6.830;2023-12-29T08:40:37;4.88;;;1.33;;
14732;SDS011;7457;50.960;6.830;2023-12-29T08:43:02;5.38;;;1.73;;
14732;SDS011;7457;50.960;6.830;2023-12-29T08:45:28;4.20;;;1.50;;
14732;SDS011;7457;50.960;6.830;2023-12-29T08:47:54;4.43;;;1.55;;
14732;SDS011;7457;50.960;6.830;2023-12-29T08:50:19;4.32;;;1.40;;
14732;SDS011;7457;50.960;6.830;2023-12-29T08:52:46;2.92;;;1.55;;
14732;SDS011;7457;50.960;6.830;2023-12-29T08:55:12;3.33;;;1.48;;
14732;SDS011;7457;50.960;6.830;2023-12-29T08:57:38;2.08;;;1.38;;
14732;SDS011;7457;50.960;6.830;2023-12-29T09:00:03;4.32;;;1.60;;
14732;SDS011;7457;50.960;6.830;2023-12-29T09:02:34;4.35;;;1.70;;
14732;SDS011;7457;50.960;6.830;2023-12-29T09:05:00;3.30;;;1.65;;
14732;SDS011;7457;50.960;6.830;2023-12-29T09:07:25;2.50;;;1.63;;
14732;SDS011;7457;50.960;6.830;2023-12-29T09:09:53;8.90;;;1.70;;
14732;SDS011;7457;50.960;6.830;2023-12-29T09:12:18;4.47;;;1.88;;
14732;SDS011;7457;50.960;6.830;2023-12-29T09:14:44;5.63;;;1.45;;
14732;SDS011;7457;50.960;6.830;2023-12-29T09:17:10;7.78;;;1.98;;
14732;SDS011;7457;50.960;6.830;2023-12-29T09:19:36;5.30;;;1.60;;
14732;SDS011;7457;50.960;6.830;2023-12-29T09:22:02;4.18;;;1.80;;
14732;SDS011;7457;50.960;6.830;2023-12-29T09:24:28;5.07;;;1.30;;
14732;SDS011;7457;50.960;6.830;2023-12-29T09:26:53;4.18;;;1.60;;
14732;SDS011;7457;50.960;6.830;2023-12-29T09:29:19;3.97;;;1.60;;
14732;SDS011;7457;50.960;6.830;2023-12-29T09:31:45;6.75;;;1.48;;
14732;SDS011;7457;50.960;6.830;2023-12-29T09:34:10;3.95;;;1.20;;
14732;SDS011;7457;50.960;6.830;2023-12-29T09:36:36;5.18;;;1.48;;
14732;SDS011;7457;50.960;6.830;2023-12-29T09:39:01;3.53;;;1.27;;
14732;SDS011;7457;50.960;6.830;2023-12-29T09:41:27;5.90;;;1.30;;
14732;SDS011;7457;50.960;6.830;2023-12-29T09:43:56;4.18;;;1.23;;
14732;SDS011;7457;50.960;6.830;2023-12-29T09:46:23;4.57;;;1.60;;
14732;SDS011;7457;50.960;6.830;2023-12-29T09:48:51;3.38;;;1.40;;
14732;SDS011;7457;50.960;6.830;2023-12-29T09:51:22;6.45;;;1.10;;
14732;SDS011;7457;50.960;6.830;2023-12-29T09:53:49;2.95;;;1.77;;
14732;SDS011;7457;50.960;6.830;2023-12-29T09:56:17;4.38;;;1.50;;
14732;SDS011;7457;50.960;6.830;2023-12-29T09:58:43;1.92;;;1.00;;
14732;SDS011;7457;50.960;6.830;2023-12-29T10:01:13;1.33;;;0.88;;
14732;SDS011;7457;50.960;6.830;2023-12-29T10:03:39;2.05;;;0.90;;
14732;SDS011;7457;50.960;6.830;2023-12-29T10:06:06;2.03;;;1.00;;
14732;SDS011;7457;50.960;6.830;2023-12-29T10:08:33;1.27;;;0.82;;
14732;SDS011;7457;50.960;6.830;2023-12-29T10:11:00;1.38;;;0.82;;
14732;SDS011;7457;50.960;6.830;2023-12-29T10:13:27;1.50;;;0.82;;
14732;SDS011;7457;50.960;6.830;2023-12-29T10:21:23;2.45;;;0.90;;
14732;SDS011;7457;50.960;6.830;2023-12-29T10:26:28;1.40;;;0.63;;
14732;SDS011;7457;50.960;6.830;2023-12-29T10:28:54;1.55;;;0.60;;
14732;SDS011;7457;50.960;6.830;2023-12-29T10:31:22;1.45;;;0.88;;
14732;SDS011;7457;50.960;6.830;2023-12-29T10:33:48;2.58;;;0.80;;
14732;SDS011;7457;50.960;6.830;2023-12-29T10:36:17;2.00;;;0.65;;
14732;SDS011;7457;50.960;6.830;2023-12-29T10:38:42;2.60;;;0.68;;
14732;SDS011;7457;50.960;6.830;2023-12-29T10:43:42;1.48;;;0.55;;
14732;SDS011;7457;50.960;6.830;2023-12-29T10:46:10;1.25;;;0.60;;
14732;SDS011;7457;50.960;6.830;2023-12-29T10:48:36;2.92;;;1.17;;
14732;SDS011;7457;50.960;6.830;2023-12-29T10:51:03;3.25;;;1.13;;
14732;SDS011;7457;50.960;6.830;2023-12-29T10:53:29;1.23;;;0.80;;
14732;SDS011;7457;50.960;6.830;2023-12-29T10:55:56;1.23;;;0.70;;
14732;SDS011;7457;50.960;6.830;2023-12-29T10:58:23;1.85;;;0.70;;
14732;SDS011;7457;50.960;6.830;2023-12-29T11:00:52;3.72;;;0.60;;
14732;SDS011;7457;50.960;6.830;2023-12-29T11:03:19;1.73;;;0.70;;
14732;SDS011;7457;50.960;6.830;2023-12-29T11:05:45;0.95;;;0.70;;
14732;SDS011;7457;50.960;6.830;2023-12-29T11:08:20;0.88;;;0.68;;
14732;SDS011;7457;50.960;6.830;2023-12-29T11:10:49;3.33;;;0.95;;
14732;SDS011;7457;50.960;6.830;2023-12-29T11:13:15;1.20;;;0.80;;
14732;SDS011;7457;50.960;6.830;2023-12-29T11:15:42;2.33;;;0.80;;
14732;SDS011;7457;50.960;6.830;2023-12-29T11:18:15;0.75;;;0.55;;
14732;SDS011;7457;50.960;6.830;2023-12-29T11:20:42;3.08;;;1.00;;
14732;SDS011;7457;50.960;6.830;2023-12-29T11:23:11;1.27;;;0.90;;
14732;SDS011;7457;50.960;6.830;2023-12-29T11:25:40;1.17;;;0.80;;
14732;SDS011;7457;50.960;6.830;2023-12-29T11:28:09;3.58;;;0.80;;
14732;SDS011;7457;50.960;6.830;2023-12-29T11:30:39;0.82;;;0.60;;
14732;SDS011;7457;50.960;6.830;2023-12-29T11:38:47;1.33;;;0.90;;
14732;SDS011;7457;50.960;6.830;2023-12-29T11:44:11;3.65;;;0.75;;
14732;SDS011;7457;50.960;6.830;2023-12-29T11:46:38;2.03;;;0.77;;
14732;SDS011;7457;50.960;6.830;2023-12-29T11:49:08;3.53;;;1.00;;
14732;SDS011;7457;50.960;6.830;2023-12-29T11:54:01;5.30;;;0.82;;
14732;SDS011;7457;50.960;6.830;2023-12-29T11:56:32;1.65;;;0.73;;
14732;SDS011;7457;50.960;6.830;2023-12-29T11:59:15;2.28;;;0.90;;
14732;SDS011;7457;50.960;6.830;2023-12-29T12:01:43;1.40;;;0.85;;
14732;SDS011;7457;50.960;6.830;2023-12-29T12:07:07;1.90;;;0.80;;
14732;SDS011;7457;50.960;6.830;2023-12-29T12:09:38;1.20;;;0.75;;
14732;SDS011;7457;50.960;6.830;2023-12-29T12:12:04;1.67;;;0.82;;
14732;SDS011;7457;50.960;6.830;2023-12-29T12:17:27;2.78;;;1.00;;
14732;SDS011;7457;50.960;6.830;2023-12-29T12:19:58;1.50;;;0.80;;
14732;SDS011;7457;50.960;6.830;2023-12-29T12:22:26;0.60;;;0.60;;
14732;SDS011;7457;50.960;6.830;2023-12-29T12:24:56;0.85;;;0.50;;
14732;SDS011;7457;50.960;6.830;2023-12-29T12:27:23;0.95;;;0.60;;
14732;SDS011;7457;50.960;6.830;2023-12-29T12:29:54;1.00;;;0.50;;
14732;SDS011;7457;50.960;6.830;2023-12-29T12:32:22;0.55;;;0.45;;
14732;SDS011;7457;50.960;6.830;2023-12-29T12:34:49;1.73;;;0.68;;
14732;SDS011;7457;50.960;6.830;2023-12-29T12:37:18;1.27;;;0.60;;
14732;SDS011;7457;50.960;6.830;2023-12-29T12:39:47;1.05;;;0.55;;
14732;SDS011;7457;50.960;6.830;2023-12-29T12:42:14;0.60;;;0.60;;
14732;SDS011;7457;50.960;6.830;2023-12-29T12:44:42;0.47;;;0.43;;
14732;SDS011;7457;50.960;6.830;2023-12-29T12:47:31;0.77;;;0.40;;
14732;SDS011;7457;50.960;6.830;2023-12-29T12:50:00;0.40;;;0.40;;
14732;SDS011;7457;50.960;6.830;2023-12-29T12:52:29;2.30;;;0.93;;
14732;SDS011;7457;50.960;6.830;2023-12-29T12:54:57;1.42;;;0.50;;
14732;SDS011;7457;50.960;6.830;2023-12-29T12:57:22;2.03;;;0.75;;
14732;SDS011;7457;50.960;6.830;2023-12-29T12:59:49;0.30;;;0.30;;
14732;SDS011;7457;50.960;6.830;2023-12-29T13:02:18;0.50;;;0.50;;
14732;SDS011;7457;50.960;6.830;2023-12-29T13:04:45;1.95;;;0.80;;
14732;SDS011;7457;50.960;6.830;2023-12-29T13:07:11;1.13;;;0.80;;
14732;SDS011;7457;50.960;6.830;2023-12-29T13:09:41;1.02;;;0.80;;
14732;SDS011;7457;50.960;6.830;2023-12-29T13:12:07;0.57;;;0.50;;
14732;SDS011;7457;50.960;6.830;2023-12-29T13:14:36;1.05;;;0.55;;
14732;SDS011;7457;50.960;6.830;2023-12-29T13:17:05;1.20;;;0.50;;
14732;SDS011;7457;50.960;6.830;2023-12-29T13:19:31;1.27;;;0.60;;
14732;SDS011;7457;50.960;6.830;2023-12-29T13:21:59;1.38;;;0.70;;
14732;SDS011;7457;50.960;6.830;2023-12-29T13:24:25;1.88;;;0.55;;
14732;SDS011;7457;50.960;6.830;2023-12-29T13:26:54;3.10;;;0.70;;
14732;SDS011;7457;50.960;6.830;2023-12-29T13:29:23;0.73;;;0.45;;
14732;SDS011;7457;50.960;6.830;2023-12-29T13:31:50;0.75;;;0.47;;
14732;SDS011;7457;50.960;6.830;2023-12-29T13:34:23;0.95;;;0.57;;
14732;SDS011;7457;50.960;6.830;2023-12-29T13:37:02;1.13;;;0.82;;
14732;SDS011;7457;50.960;6.830;2023-12-29T13:40:24;1.73;;;0.63;;
14732;SDS011;7457;50.960;6.830;2023-12-29T13:42:35;2.38;;;0.60;;
14732;SDS011;7457;50.960;6.830;2023-12-29T13:45:05;1.40;;;0.70;;
14732;SDS011;7457;50.960;6.830;2023-12-29T13:47:33;1.17;;;0.40;;
14732;SDS011;7457;50.960;6.830;2023-12-29T13:50:00;1.08;;;0.60;;
14732;SDS011;7457;50.960;6.830;2023-12-29T13:52:26;2.38;;;0.68;;
14732;SDS011;7457;50.960;6.830;2023-12-29T13:54:52;1.13;;;0.63;;
14732;SDS011;7457;50.960;6.830;2023-12-29T13:57:17;2.22;;;0.90;;
14732;SDS011;7457;50.960;6.830;2023-12-29T13:59:44;0.40;;;0.40;;
14732;SDS011;7457;50.960;6.830;2023-12-29T14:07:38;1.77;;;0.77;;
14732;SDS011;7457;50.960;6.830;2023-12-29T14:10:17;0.65;;;0.65;;
14732;SDS011;7457;50.960;6.830;2023-12-29T14:12:43;1.27;;;0.80;;
14732;SDS011;7457;50.960;6.830;2023-12-29T14:15:09;1.90;;;0.65;;
14732;SDS011;7457;50.960;6.830;2023-12-29T14:17:35;0.50;;;0.50;;
14732;SDS011;7457;50.960;6.830;2023-12-29T14:20:03;1.50;;;0.88;;
14732;SDS011;7457;50.960;6.830;2023-12-29T14:22:31;2.15;;;0.90;;
14732;SDS011;7457;50.960;6.830;2023-12-29T14:25:04;1.10;;;0.60;;
14732;SDS011;7457;50.960;6.830;2023-12-29T14:27:30;1.05;;;0.82;;
14732;SDS011;7457;50.960;6.830;2023-12-29T14:29:56;2.47;;;0.80;;
14732;SDS011;7457;50.960;6.830;2023-12-29T14:32:23;1.13;;;0.47;;
14732;SDS011;7457;50.960;6.830;2023-12-29T14:34:49;1.50;;;0.95;;
14732;SDS011;7457;50.960;6.830;2023-12-29T14:37:21;1.02;;;0.90;;
14732;SDS011;7457;50.960;6.830;2023-12-29T14:39:50;1.55;;;0.75;;
14732;SDS011;7457;50.960;6.830;2023-12-29T14:42:16;0.82;;;0.77;;
14732;SDS011;7457;50.960;6.830;2023-12-29T14:44:45;0.75;;;0.60;;
14732;SDS011;7457;50.960;6.830;2023-12-29T14:47:12;1.65;;;0.60;;
14732;SDS011;7457;50.960;6.830;2023-12-29T14:49:38;2.28;;;0.57;;
14732;SDS011;7457;50.960;6.830;2023-12-29T14:52:04;1.05;;;0.75;;
14732;SDS011;7457;50.960;6.830;2023-12-29T14:54:30;1.20;;;0.70;;
14732;SDS011;7457;50.960;6.830;2023-12-29T14:56:55;0.50;;;0.50;;
14732;SDS011;7457;50.960;6.830;2023-12-29T14:59:21;1.20;;;0.52;;
14732;SDS011;7457;50.960;6.830;2023-12-29T15:01:47;0.85;;;0.70;;
14732;SDS011;7457;50.960;6.830;2023-12-29T15:04:12;1.42;;;0.77;;
14732;SDS011;7457;50.960;6.830;2023-12-29T15:06:39;4.03;;;0.80;;
14732;SDS011;7457;50.960;6.830;2023-12-29T15:09:05;0.55;;;0.55;;
14732;SDS011;7457;50.960;6.830;2023-12-29T15:11:32;0.60;;;0.55;;
14732;SDS011;7457;50.960;6.830;2023-12-29T15:13:58;0.63;;;0.63;;
14732;SDS011;7457;50.960;6.830;2023-12-29T15:16:24;0.52;;;0.52;;
14732;SDS011;7457;50.960;6.830;2023-12-29T15:18:49;0.70;;;0.70;;
14732;SDS011;7457;50.960;6.830;2023-12-29T15:21:15;0.40;;;0.40;;
14732;SDS011;7457;50.960;6.830;2023-12-29T15:23:41;0.65;;;0.60;;
14732;SDS011;7457;50.960;6.830;2023-12-29T15:26:06;2.88;;;0.85;;
14732;SDS011;7457;50.960;6.830;2023-12-29T15:28:32;0.90;;;0.60;;
14732;SDS011;7457;50.960;6.830;2023-12-29T15:30:57;0.95;;;0.60;;
14732;SDS011;7457;50.960;6.830;2023-12-29T15:33:23;0.57;;;0.40;;
14732;SDS011;7457;50.960;6.830;2023-12-29T15:35:50;0.88;;;0.43;;